Time;durP1;ratioP1;P1;durP2;ratioP2;P2;SDS_P1;SDS_P2;PMS_P1;PMS_P2;Temp;Humidity;BMP_temperature;BMP_pressure;BME280_temperature;BME280_humidity;BME280_pressure;Samples;Min_cycle;Max_cycle;Signal;HPM_P1;HPM_P2
2023/02/03 00:00:13;;;;;;;;;;;;;;;16.26;43.71;100864.56;4967063;28;1911;-57
2023/02/03 00:02:38;;;;;;;;;;;;;;;15.89;43.98;100860.00;4978168;28;1133;-55
2023/02/03 00:05:03;;;;;;;;;;;;;;;16.58;42.87;100860.81;4967233;28;993;-60
2023/02/03 00:07:29;;;;;;;;;;;;;;;15.87;44.09;100870.44;4977892;28;1055;-63
2023/02/03 00:09:55;;;;;;;;;;;;;;;16.28;43.83;100878.00;4993312;28;1893;-59
2023/02/03 00:12:20;;;;;;;;;;;;;;;16.16;43.80;100881.81;4970754;28;1098;-57
2023/02/03 00:14:45;;;;;;;;;;;;;;;15.71;44.43;100884.03;4970973;28;1130;-60
2023/02/03 00:17:11;;;;;;;;;;;;;;;16.51;43.26;100873.94;4978348;28;1069;-58
2023/02/03 00:19:36;;;;;;;;;;;;;;;16.10;44.07;100876.56;4978399;28;1985;-56
2023/02/03 00:22:02;;;;;;;;;;;;;;;15.61;44.53;100872.16;4960860;28;1204;-57
2023/02/03 00:24:27;;;;;;;;;;;;;;;15.90;44.22;100869.88;4971019;28;1189;-58
2023/02/03 00:26:53;;;;;;;;;;;;;;;16.05;43.96;100863.66;4978152;28;1088;-55
2023/02/03 00:29:20;;;;;;;;;;;;;;;15.51;44.89;100868.25;4978354;28;967;-56
2023/02/03 00:31:45;;;;;;;;;;;;;;;16.72;42.59;100877.59;4960753;28;2274;-57
2023/02/03 00:34:11;;;;;;;;;;;;;;;15.67;44.69;100882.91;4978337;28;986;-58
2023/02/03 00:36:38;;;;;;;;;;;;;;;16.67;42.83;100897.59;4965440;28;1086;-60
2023/02/03 00:39:04;;;;;;;;;;;;;;;16.68;42.54;100890.19;4978406;28;1910;-58
2023/02/03 00:41:31;;;;;;;;;;;;;;;15.78;44.19;100900.25;4964553;28;1908;-58
2023/02/03 00:43:57;;;;;;;;;;;;;;;15.70;44.66;100901.56;4966388;28;1145;-56
2023/02/03 00:46:22;;;;;;;;;;;;;;;16.03;43.99;100916.03;4976229;28;1094;-58
2023/02/03 00:48:47;;;;;;;;;;;;;;;15.55;44.49;100906.94;4967055;28;1133;-56
2023/02/03 00:51:13;;;;;;;;;;;;;;;16.05;44.40;100905.63;4976961;28;1125;-57
2023/02/03 00:53:38;;;;;;;;;;;;;;;15.84;44.44;100904.69;4959958;28;1395;-56
2023/02/03 00:56:11;;;;;;;;;;;;;;;17.12;41.77;100914.44;4973195;28;1096;-59
2023/02/03 00:58:37;;;;;;;;;;;;;;;17.52;40.84;100911.97;4971005;28;1910;-57
2023/02/03 01:01:02;;;;;;;;;;;;;;;16.20;43.52;100915.00;4976923;28;1132;-58
2023/02/03 01:03:28;;;;;;;;;;;;;;;15.70;44.51;100912.53;4965835;28;1189;-59
2023/02/03 01:05:53;;;;;;;;;;;;;;;15.70;44.12;100911.69;4976505;28;1074;-55
2023/02/03 01:08:19;;;;;;;;;;;;;;;16.37;43.11;100904.66;4965986;28;1133;-55
2023/02/03 01:10:44;;;;;;;;;;;;;;;17.05;41.90;100909.22;4973593;28;1959;-59
2023/02/03 01:13:09;;;;;;;;;;;;;;;18.33;39.21;100907.38;4966304;28;1134;-58
2023/02/03 01:15:35;;;;;;;;;;;;;;;16.74;42.58;100914.63;4971275;28;1063;-55
2023/02/03 01:18:00;;;;;;;;;;;;;;;16.07;43.63;100914.41;4952023;28;1556;-58
2023/02/03 01:20:26;;;;;;;;;;;;;;;15.91;44.10;100929.13;4964619;28;1910;-59
2023/02/03 01:22:51;;;;;;;;;;;;;;;16.40;43.26;100923.31;4977635;28;1096;-54
2023/02/03 01:25:16;;;;;;;;;;;;;;;17.45;41.31;100928.75;4964395;28;1113;-57
2023/02/03 01:27:42;;;;;;;;;;;;;;;18.54;38.79;100910.03;4966679;28;1145;-59
2023/02/03 01:30:08;;;;;;;;;;;;;;;16.80;42.32;100918.22;4970809;28;1035;-56
2023/02/03 01:32:33;;;;;;;;;;;;;;;16.20;43.27;100909.50;4968916;28;1038;-57
2023/02/03 01:34:59;;;;;;;;;;;;;;;15.97;43.80;100908.88;4960257;28;1140;-55
2023/02/03 01:37:24;;;;;;;;;;;;;;;17.03;41.93;100903.19;4966167;28;1079;-57
2023/02/03 01:39:49;;;;;;;;;;;;;;;16.03;43.79;100912.47;4961819;28;1975;-57
2023/02/03 01:42:15;;;;;;;;;;;;;;;15.82;43.85;100909.63;4967359;28;2095;-54
2023/02/03 01:44:44;;;;;;;;;;;;;;;17.14;41.51;100905.94;4987215;28;1154;-54
2023/02/03 01:47:12;;;;;;;;;;;;;;;15.93;44.00;100915.97;4974299;28;1004;-57
2023/02/03 01:49:38;;;;;;;;;;;;;;;16.82;42.65;100923.47;4992214;28;1193;-54
2023/02/03 01:52:03;;;;;;;;;;;;;;;16.53;42.68;100922.00;4976937;28;1069;-56
2023/02/03 01:54:30;;;;;;;;;;;;;;;15.87;43.96;100920.59;4963851;28;1034;-56
2023/02/03 01:56:58;;;;;;;;;;;;;;;15.70;44.12;100920.75;4991730;28;1021;-51
2023/02/03 01:59:23;;;;;;;;;;;;;;;16.38;43.37;100927.44;4941080;29;1975;-58
2023/02/03 02:01:49;;;;;;;;;;;;;;;15.91;44.25;100918.16;4970133;28;1039;-54
2023/02/03 02:04:14;;;;;;;;;;;;;;;17.88;40.09;100914.66;4963966;28;1169;-56
2023/02/03 02:06:40;;;;;;;;;;;;;;;16.50;42.91;100916.22;4964757;28;1118;-56
2023/02/03 02:09:10;;;;;;;;;;;;;;;15.94;43.65;100909.41;4976572;28;1259;-54
2023/02/03 02:11:37;;;;;;;;;;;;;;;15.76;43.94;100916.13;4975414;28;2098;-54
2023/02/03 02:14:02;;;;;;;;;;;;;;;17.13;41.90;100916.09;4946115;28;1301;-56
2023/02/03 02:16:33;;;;;;;;;;;;;;;15.97;44.05;100921.75;4975058;28;1338;-57
2023/02/03 02:19:05;;;;;;;;;;;;;;;15.57;44.27;100913.81;4976059;28;1914;-57
2023/02/03 02:21:49;;;;;;;;;;;;;;;16.08;44.06;100923.47;4946235;28;1133;-55
2023/02/03 02:24:16;;;;;;;;;;;;;;;15.81;44.31;100912.59;4965986;28;1122;-53
2023/02/03 02:26:55;;;;;;;;;;;;;;;16.25;43.49;100904.06;4973778;28;1038;-57
2023/02/03 02:29:40;;;;;;;;;;;;;;;16.79;42.14;100902.00;4974504;28;1128;-56
2023/02/03 02:32:24;;;;;;;;;;;;;;;16.28;43.66;100906.25;4984106;28;1100;-56
2023/02/03 02:35:02;;;;;;;;;;;;;;;17.83;40.13;100899.00;4974145;28;1078;-54
2023/02/03 02:37:54;;;;;;;;;;;;;;;16.27;43.17;100903.78;4991467;28;1171;-53
2023/02/03 02:40:22;;;;;;;;;;;;;;;15.76;44.04;100904.34;4930834;29;1918;-56
2023/02/03 02:43:04;;;;;;;;;;;;;;;16.43;43.14;100903.56;4965102;28;1556;-57
2023/02/03 02:45:31;;;;;;;;;;;;;;;16.01;43.69;100904.50;4969015;28;1165;-55
2023/02/03 02:48:07;;;;;;;;;;;;;;;15.60;44.35;100909.72;4974839;28;1151;-59
2023/02/03 02:50:33;;;;;;;;;;;;;;;15.51;44.07;100903.06;4974753;28;1104;-58
2023/02/03 02:52:59;;;;;;;;;;;;;;;15.56;43.89;100895.69;4990992;28;1113;-56
2023/02/03 02:55:27;;;;;;;;;;;;;;;15.79;44.18;100899.16;4972184;28;1373;-57
2023/02/03 02:57:57;;;;;;;;;;;;;;;15.37;44.47;100892.53;4977972;28;1293;-55
2023/02/03 03:00:22;;;;;;;;;;;;;;;17.09;41.63;100887.53;4990877;28;1906;-55
2023/02/03 03:02:48;;;;;;;;;;;;;;;15.75;44.31;100895.25;4970250;28;893;-58
2023/02/03 03:05:14;;;;;;;;;;;;;;;15.48;44.59;100898.13;4969575;28;1014;-55
2023/02/03 03:07:58;;;;;;;;;;;;;;;16.70;42.41;100905.28;4973942;28;1332;-55
2023/02/03 03:10:24;;;;;;;;;;;;;;;15.59;44.38;100905.31;4984917;28;1867;-58
2023/02/03 03:12:52;;;;;;;;;;;;;;;15.49;44.92;100913.47;4950877;29;1196;-56
2023/02/03 03:15:21;;;;;;;;;;;;;;;16.26;43.29;100919.44;4954777;28;995;-54
2023/02/03 03:18:08;;;;;;;;;;;;;;;16.63;42.88;100915.72;4958979;28;1318;-54
2023/02/03 03:20:33;;;;;;;;;;;;;;;17.94;39.48;100917.16;4970189;28;2059;-58
2023/02/03 03:23:01;;;;;;;;;;;;;;;16.40;42.67;100934.31;4968848;28;1098;-56
2023/02/03 03:25:31;;;;;;;;;;;;;;;15.82;43.92;100934.31;4993816;28;1053;-55
2023/02/03 03:28:01;;;;;;;;;;;;;;;15.59;43.81;100932.72;4994235;28;1072;-56
2023/02/03 03:30:28;;;;;;;;;;;;;;;16.43;43.03;100946.66;4968941;28;963;-56
2023/02/03 03:32:53;;;;;;;;;;;;;;;15.69;44.16;100948.41;4994762;28;1088;-55
2023/02/03 03:35:19;;;;;;;;;;;;;;;16.50;42.96;100951.91;4979626;28;1018;-57
2023/02/03 03:37:54;;;;;;;;;;;;;;;16.07;43.54;100955.56;4966879;28;948;-52
2023/02/03 03:40:21;;;;;;;;;;;;;;;15.57;44.23;100951.34;4970867;28;1902;-56
2023/02/03 03:42:46;;;;;;;;;;;;;;;16.84;42.07;100954.22;4974108;28;1102;-58
2023/02/03 03:45:25;;;;;;;;;;;;;;;15.87;43.89;100955.44;4971087;28;1102;-56
2023/02/03 03:47:54;;;;;;;;;;;;;;;16.90;41.84;100948.50;4976271;28;1077;-56
2023/02/03 03:50:20;;;;;;;;;;;;;;;16.73;41.83;100948.69;4968864;28;1196;-57
2023/02/03 03:52:46;;;;;;;;;;;;;;;15.70;44.22;100953.63;4964318;28;1042;-56
2023/02/03 03:55:13;;;;;;;;;;;;;;;15.57;44.01;100957.66;4968223;28;1098;-57
2023/02/03 03:58:04;;;;;;;;;;;;;;;16.15;43.23;100969.88;4987073;28;1026;-59
2023/02/03 04:00:31;;;;;;;;;;;;;;;15.67;44.04;100967.88;4971519;28;1980;-54
2023/02/03 04:02:57;;;;;;;;;;;;;;;17.13;41.43;100971.06;4982913;28;1050;-54
2023/02/03 04:05:22;;;;;;;;;;;;;;;17.05;40.99;100971.59;4993689;28;982;-56
2023/02/03 04:07:48;;;;;;;;;;;;;;;15.95;43.48;100981.53;4985676;28;897;-55
2023/02/03 04:10:19;;;;;;;;;;;;;;;16.86;41.90;100977.56;4971679;28;1860;-53
2023/02/03 04:12:45;;;;;;;;;;;;;;;16.10;43.36;100975.31;4979023;28;1018;-57
2023/02/03 04:15:10;;;;;;;;;;;;;;;15.64;44.12;100967.56;4976314;28;1081;-55
2023/02/03 04:17:36;;;;;;;;;;;;;;;17.10;41.46;100975.16;4968224;28;1019;-51
2023/02/03 04:20:02;;;;;;;;;;;;;;;16.01;43.14;100970.31;4975650;28;2031;-57
2023/02/03 04:22:28;;;;;;;;;;;;;;;15.84;43.97;100975.16;4959469;29;1038;-57
2023/02/03 04:24:53;;;;;;;;;;;;;;;16.82;41.87;100975.66;4974865;28;1114;-55
2023/02/03 04:27:18;;;;;;;;;;;;;;;15.83;43.85;100970.75;4969514;28;1169;-57
2023/02/03 04:29:46;;;;;;;;;;;;;;;15.61;43.77;100973.56;4972210;28;1019;-53
2023/02/03 04:32:11;;;;;;;;;;;;;;;16.56;42.13;100994.75;4960227;28;1067;-56
2023/02/03 04:34:37;;;;;;;;;;;;;;;15.72;43.76;100991.75;4970461;28;1145;-49
2023/02/03 04:37:02;;;;;;;;;;;;;;;17.00;41.57;101005.38;4972505;28;1402;-55
2023/02/03 04:39:28;;;;;;;;;;;;;;;16.57;42.22;101008.22;4977782;28;1972;-61
2023/02/03 04:41:53;;;;;;;;;;;;;;;15.76;43.84;101014.81;4973015;28;2102;-58
2023/02/03 04:44:18;;;;;;;;;;;;;;;17.58;39.88;101010.66;4966226;28;907;-60
2023/02/03 04:46:44;;;;;;;;;;;;;;;16.21;42.77;101013.50;4965548;28;1078;-60
2023/02/03 04:49:10;;;;;;;;;;;;;;;15.82;43.58;101012.97;4970745;28;1152;-60
2023/02/03 04:51:35;;;;;;;;;;;;;;;16.73;41.74;101025.59;4971923;28;1010;-56
2023/02/03 04:54:01;;;;;;;;;;;;;;;15.82;43.75;101018.47;4972933;28;1102;-54
2023/02/03 04:56:26;;;;;;;;;;;;;;;16.16;43.32;101012.66;4977557;28;1031;-57
2023/02/03 04:58:52;;;;;;;;;;;;;;;16.20;42.88;101008.28;4964734;28;1898;-54
2023/02/03 05:01:17;;;;;;;;;;;;;;;15.67;43.77;101019.13;4970477;28;1212;-55
2023/02/03 05:03:43;;;;;;;;;;;;;;;15.66;44.22;101025.72;4958115;28;1106;-59
2023/02/03 05:06:08;;;;;;;;;;;;;;;16.11;43.02;101026.34;4958350;28;1045;-53
2023/02/03 05:08:33;;;;;;;;;;;;;;;15.55;44.29;101027.53;4959226;28;984;-57
2023/02/03 05:10:59;;;;;;;;;;;;;;;15.30;44.06;101034.41;4957531;28;2622;-51
2023/02/03 05:13:24;;;;;;;;;;;;;;;16.22;42.92;101044.53;4958632;28;1023;-53
2023/02/03 05:15:50;;;;;;;;;;;;;;;15.77;44.23;101052.13;4958309;28;1065;-54
2023/02/03 05:18:16;;;;;;;;;;;;;;;17.67;39.82;101063.22;4958078;28;1146;-53
2023/02/03 05:20:41;;;;;;;;;;;;;;;16.42;42.47;101069.38;4966992;28;1915;-57
2023/02/03 05:23:07;;;;;;;;;;;;;;;15.77;43.76;101071.31;4958262;28;1089;-55
2023/02/03 05:25:32;;;;;;;;;;;;;;;17.00;41.13;101074.06;4958506;28;1148;-51
2023/02/03 05:27:57;;;;;;;;;;;;;;;15.86;43.55;101068.94;4958145;28;1010;-57
2023/02/03 05:30:23;;;;;;;;;;;;;;;15.67;43.80;101065.72;4957868;28;1192;-51
2023/02/03 05:32:49;;;;;;;;;;;;;;;16.23;42.58;101057.97;4961133;28;859;-56
2023/02/03 05:35:14;;;;;;;;;;;;;;;16.42;42.83;101057.53;4958044;28;1125;-56
2023/02/03 05:37:40;;;;;;;;;;;;;;;18.03;39.19;101071.47;4957237;28;928;-51
2023/02/03 05:42:50;;;;;;;;;;;;;;;15.85;43.76;101072.75;4957646;28;1019;-55
2023/02/03 05:45:15;;;;;;;;;;;;;;;15.63;43.77;101075.59;4967929;28;947;-57
2023/02/03 05:47:41;;;;;;;;;;;;;;;17.19;41.12;101077.13;4957068;28;1082;-51
2023/02/03 05:50:07;;;;;;;;;;;;;;;15.94;43.60;101076.69;4957652;28;1050;-51
2023/02/03 05:52:32;;;;;;;;;;;;;;;15.57;43.87;101085.63;4957162;28;1135;-52
2023/02/03 05:54:57;;;;;;;;;;;;;;;16.39;42.87;101089.09;4957350;29;1387;-51
2023/02/03 05:57:23;;;;;;;;;;;;;;;15.84;43.90;101087.59;4956718;28;1036;-55
2023/02/03 05:59:48;;;;;;;;;;;;;;;15.47;43.99;101093.78;4957445;28;1971;-54
2023/02/03 06:02:14;;;;;;;;;;;;;;;16.50;42.30;101100.16;4957072;28;1208;-54
2023/02/03 06:04:40;;;;;;;;;;;;;;;15.67;43.81;101093.97;4957073;28;1015;-55
2023/02/03 06:07:05;;;;;;;;;;;;;;;16.82;41.96;101101.97;4957444;28;1082;-57
2023/02/03 06:09:30;;;;;;;;;;;;;;;16.06;43.09;101101.19;4965920;28;1005;-53
2023/02/03 06:11:56;;;;;;;;;;;;;;;15.44;44.55;101099.78;4947553;28;2320;-53
2023/02/03 06:14:21;;;;;;;;;;;;;;;15.31;44.34;101096.34;4967090;28;1006;-55
2023/02/03 06:16:47;;;;;;;;;;;;;;;16.67;42.25;101092.53;4957179;28;999;-54
2023/02/03 06:19:12;;;;;;;;;;;;;;;15.94;43.28;101090.41;4956825;28;1990;-56
2023/02/03 06:21:37;;;;;;;;;;;;;;;15.97;43.47;101087.13;4960137;28;1057;-54
2023/02/03 06:24:03;;;;;;;;;;;;;;;15.72;43.81;101084.97;4957109;29;1118;-53
2023/02/03 06:26:28;;;;;;;;;;;;;;;15.44;44.35;101097.84;4956464;29;1249;-50
2023/02/03 06:28:54;;;;;;;;;;;;;;;15.38;44.58;101096.97;4956820;29;1206;-51
2023/02/03 06:31:19;;;;;;;;;;;;;;;16.97;41.05;101110.31;4964149;28;1216;-51
2023/02/03 06:33:45;;;;;;;;;;;;;;;16.89;40.87;101113.56;4974509;28;1014;-57
2023/02/03 06:36:10;;;;;;;;;;;;;;;16.03;42.81;101113.53;4969608;28;1468;-49
2023/02/03 06:38:36;;;;;;;;;;;;;;;15.61;44.06;101127.06;4969481;28;1907;-53
2023/02/03 06:41:01;;;;;;;;;;;;;;;15.39;44.22;101126.03;4957511;28;2083;-52
2023/02/03 06:43:27;;;;;;;;;;;;;;;15.54;44.24;101127.28;4970828;28;1026;-53
2023/02/03 06:45:52;;;;;;;;;;;;;;;17.09;40.61;101130.13;4962386;28;1252;-53
2023/02/03 06:48:17;;;;;;;;;;;;;;;16.89;40.79;101130.06;4957018;29;1182;-52
2023/02/03 06:50:43;;;;;;;;;;;;;;;15.98;42.94;101138.16;4956701;29;1320;-51
2023/02/03 06:53:09;;;;;;;;;;;;;;;15.63;44.07;101135.88;4956687;28;1217;-52
2023/02/03 06:55:34;;;;;;;;;;;;;;;15.35;44.37;101130.38;4956931;28;1257;-58
2023/02/03 06:58:00;;;;;;;;;;;;;;;16.68;41.78;101140.06;4957319;28;1257;-59
2023/02/03 07:00:25;;;;;;;;;;;;;;;17.24;40.35;101143.09;4960237;28;1934;-53
2023/02/03 07:02:54;;;;;;;;;;;;;;;16.20;42.41;101146.31;4967979;28;1037;-55
2023/02/03 07:05:20;;;;;;;;;;;;;;;15.75;43.56;101139.28;4960265;28;1256;-54
2023/02/03 07:07:45;;;;;;;;;;;;;;;15.49;44.30;101135.47;4974370;28;1117;-57
2023/02/03 07:10:11;;;;;;;;;;;;;;;16.65;41.85;101144.16;4971602;28;1809;-56
2023/02/03 07:12:36;;;;;;;;;;;;;;;17.60;39.45;101139.66;4960236;29;1383;-50
2023/02/03 07:15:05;;;;;;;;;;;;;;;16.50;41.80;101144.88;4960295;29;1378;-54
2023/02/03 07:17:30;;;;;;;;;;;;;;;15.94;42.92;101142.53;4960103;28;1194;-57
2023/02/03 07:19:56;;;;;;;;;;;;;;;15.66;43.84;101147.16;4959837;28;1911;-60
2023/02/03 07:22:21;;;;;;;;;;;;;;;15.43;44.15;101152.91;4960350;29;1308;-59
2023/02/03 07:24:46;;;;;;;;;;;;;;;16.87;41.13;101144.03;4960209;29;1249;-63
2023/02/03 07:27:12;;;;;;;;;;;;;;;16.97;40.55;101142.44;4960420;29;1241;-57
2023/02/03 07:29:37;;;;;;;;;;;;;;;16.12;42.54;101137.72;4959653;29;1261;-58
2023/02/03 07:32:03;;;;;;;;;;;;;;;15.72;43.69;101137.91;4959871;28;1190;-60
2023/02/03 07:34:28;;;;;;;;;;;;;;;15.48;44.13;101131.88;4960210;29;1226;-58
2023/02/03 07:36:54;;;;;;;;;;;;;;;16.96;40.95;101146.28;4959784;29;1229;-58
2023/02/03 07:39:19;;;;;;;;;;;;;;;17.06;40.58;101135.34;4959735;29;1985;-59
2023/02/03 07:41:45;;;;;;;;;;;;;;;16.13;42.43;101131.16;4957075;29;1872;-56
2023/02/03 07:44:10;;;;;;;;;;;;;;;15.77;43.42;101130.78;4959582;28;1186;-56
2023/02/03 07:46:40;;;;;;;;;;;;;;;15.52;43.89;101123.97;4967444;28;1097;-52
2023/02/03 07:49:05;;;;;;;;;;;;;;;16.13;42.56;101122.91;4959877;29;1175;-57
2023/02/03 07:51:31;;;;;;;;;;;;;;;17.40;39.76;101133.00;4959171;29;1186;-59
2023/02/03 07:53:56;;;;;;;;;;;;;;;16.50;41.43;101133.09;4972718;28;1245;-57
2023/02/03 07:56:21;;;;;;;;;;;;;;;15.94;42.73;101128.81;4966569;28;1046;-54
2023/02/03 07:58:47;;;;;;;;;;;;;;;15.62;43.37;101132.31;4966182;28;2047;-54
2023/02/03 08:01:13;;;;;;;;;;;;;;;15.73;43.44;101135.97;4979102;28;1029;-56
2023/02/03 08:03:39;;;;;;;;;;;;;;;17.26;40.15;101134.59;4972679;28;1035;-55
2023/02/03 08:06:04;;;;;;;;;;;;;;;17.11;39.94;101138.13;4972154;28;1114;-54
2023/02/03 08:08:30;;;;;;;;;;;;;;;16.17;42.37;101146.00;4971855;28;1023;-55
2023/02/03 08:10:55;;;;;;;;;;;;;;;15.85;43.11;101155.88;4955318;28;2290;-57
2023/02/03 08:13:21;;;;;;;;;;;;;;;15.63;43.51;101164.13;4959498;29;1233;-56
2023/02/03 08:15:46;;;;;;;;;;;;;;;15.84;42.88;101164.38;4959349;29;1261;-54
2023/02/03 08:18:12;;;;;;;;;;;;;;;17.29;40.10;101172.53;4976376;28;1173;-61
2023/02/03 08:20:37;;;;;;;;;;;;;;;16.41;41.77;101173.91;4977838;28;1914;-52
2023/02/03 08:23:03;;;;;;;;;;;;;;;15.88;42.69;101192.94;4978312;28;1057;-51
2023/02/03 08:25:28;;;;;;;;;;;;;;;15.60;43.62;101192.06;4963776;28;942;-50
2023/02/03 08:27:54;;;;;;;;;;;;;;;16.35;42.14;101197.72;4964262;28;1137;-52
2023/02/03 08:30:19;;;;;;;;;;;;;;;17.49;39.39;101187.44;4978732;28;994;-54
2023/02/03 08:32:45;;;;;;;;;;;;;;;16.35;41.55;101191.44;4965253;28;1117;-54
2023/02/03 08:35:10;;;;;;;;;;;;;;;15.92;42.88;101194.03;4978532;28;1021;-52
2023/02/03 08:37:36;;;;;;;;;;;;;;;15.65;43.40;101197.56;4960997;28;1137;-54
2023/02/03 08:40:01;;;;;;;;;;;;;;;16.09;42.37;101193.97;4957610;29;1976;-57
2023/02/03 08:42:26;;;;;;;;;;;;;;;17.41;39.54;101195.13;4961445;28;1065;-56
2023/02/03 08:44:52;;;;;;;;;;;;;;;16.55;41.24;101190.75;4963424;28;1025;-51
2023/02/03 08:47:17;;;;;;;;;;;;;;;15.95;42.61;101196.28;4978305;28;1197;-57
2023/02/03 08:49:43;;;;;;;;;;;;;;;15.68;43.36;101205.31;4965921;28;1450;-56
2023/02/03 08:52:09;;;;;;;;;;;;;;;15.53;43.75;101202.38;4978020;28;1098;-57
2023/02/03 08:54:35;;;;;;;;;;;;;;;17.04;40.47;101204.31;4980466;28;1141;-52
2023/02/03 08:57:00;;;;;;;;;;;;;;;17.35;39.41;101193.47;4963376;28;1284;-58
2023/02/03 08:59:26;;;;;;;;;;;;;;;16.29;41.78;101192.50;4958775;29;1899;-54
2023/02/03 09:01:51;;;;;;;;;;;;;;;15.91;42.91;101186.94;4958186;29;1225;-56
2023/02/03 09:04:23;;;;;;;;;;;;;;;15.68;43.11;101188.84;4958334;29;1273;-57
2023/02/03 09:06:53;;;;;;;;;;;;;;;15.74;43.20;101197.97;4953347;28;902;-55
2023/02/03 09:09:18;;;;;;;;;;;;;;;17.28;39.71;101204.69;4963813;28;1478;-49
2023/02/03 09:11:44;;;;;;;;;;;;;;;16.85;40.66;101211.28;4977659;28;2257;-54
2023/02/03 09:14:09;;;;;;;;;;;;;;;16.04;42.42;101197.47;4977788;28;1062;-52
2023/02/03 09:16:35;;;;;;;;;;;;;;;15.74;43.05;101203.44;4962618;28;1058;-52
2023/02/03 09:19:00;;;;;;;;;;;;;;;15.51;43.62;101204.53;4967000;28;1973;-49
2023/02/03 09:21:26;;;;;;;;;;;;;;;15.59;43.51;101201.34;4972204;28;1001;-54
2023/02/03 09:23:51;;;;;;;;;;;;;;;17.12;40.36;101199.41;4969416;28;1153;-54
2023/02/03 09:26:16;;;;;;;;;;;;;;;16.75;40.66;101207.38;4976907;28;1192;-54
2023/02/03 09:28:42;;;;;;;;;;;;;;;15.97;42.41;101199.59;4964513;28;1134;-55
2023/02/03 09:31:11;;;;;;;;;;;;;;;15.69;43.16;101198.72;4977463;28;1104;-52
2023/02/03 09:33:36;;;;;;;;;;;;;;;15.48;43.84;101196.84;4960962;28;1154;-51
2023/02/03 09:36:02;;;;;;;;;;;;;;;15.25;44.43;101190.53;4966421;28;987;-54
2023/02/03 09:38:27;;;;;;;;;;;;;;;16.76;41.10;101189.81;4963801;28;1192;-54
2023/02/03 09:41:11;;;;;;;;;;;;;;;17.15;40.11;101180.44;4961316;28;2062;-53
2023/02/03 09:43:40;;;;;;;;;;;;;;;15.99;42.68;101182.88;4969066;28;1034;-56
2023/02/03 09:46:06;;;;;;;;;;;;;;;15.70;43.06;101181.19;4968668;28;1129;-56
2023/02/03 09:48:40;;;;;;;;;;;;;;;15.43;43.87;101180.31;4991656;28;1433;-55
2023/02/03 09:51:06;;;;;;;;;;;;;;;16.80;40.77;101184.59;4976436;28;1037;-57
2023/02/03 09:53:36;;;;;;;;;;;;;;;17.23;39.92;101187.34;4966627;28;994;-52
2023/02/03 09:56:01;;;;;;;;;;;;;;;16.15;42.41;101175.63;4989634;28;1150;-57
2023/02/03 09:58:28;;;;;;;;;;;;;;;15.77;43.35;101180.16;4966053;28;898;-57
2023/02/03 10:00:55;;;;;;;;;;;;;;;15.55;43.65;101181.03;4989529;28;1975;-54
2023/02/03 10:03:20;;;;;;;;;;;;;;;16.30;42.33;101169.41;4991905;28;1029;-53
2023/02/03 10:05:46;;;;;;;;;;;;;;;17.48;39.60;101166.56;4976400;28;1002;-56
2023/02/03 10:08:26;;;;;;;;;;;;;;;16.44;41.73;101173.41;4976945;28;986;-51
2023/02/03 10:11:10;;;;;;;;;;;;;;;15.85;43.16;101174.22;4973405;28;1841;-53
2023/02/03 10:13:42;;;;;;;;;;;;;;;15.58;43.57;101172.28;4964168;28;1013;-54
2023/02/03 10:16:10;;;;;;;;;;;;;;;15.40;44.00;101170.69;4966667;28;1118;-53
2023/02/03 10:18:38;;;;;;;;;;;;;;;16.81;41.20;101180.78;4972056;28;1133;-54
2023/02/03 10:21:15;;;;;;;;;;;;;;;17.22;40.13;101170.03;4975785;28;1906;-57
2023/02/03 10:23:40;;;;;;;;;;;;;;;16.10;42.58;101172.81;4968321;28;991;-56
2023/02/03 10:26:06;;;;;;;;;;;;;;;15.74;43.35;101162.31;4978701;28;1037;-49
2023/02/03 10:28:35;;;;;;;;;;;;;;;15.53;43.89;101158.53;4968072;28;1002;-53
2023/02/03 10:31:03;;;;;;;;;;;;;;;16.46;41.99;101153.91;4976309;28;1068;-54
2023/02/03 10:33:29;;;;;;;;;;;;;;;17.54;39.42;101157.22;4976326;28;1175;-55
2023/02/03 10:35:59;;;;;;;;;;;;;;;16.51;41.72;101162.16;4985701;28;1110;-55
2023/02/03 10:38:34;;;;;;;;;;;;;;;15.90;42.96;101161.41;4941691;29;1210;-58
2023/02/03 10:40:59;;;;;;;;;;;;;;;15.65;43.40;101161.13;4965341;28;2009;-58
2023/02/03 10:46:09;;;;;;;;;;;;;;;17.16;40.15;101165.59;4945742;29;1147;-54
2023/02/03 10:48:34;;;;;;;;;;;;;;;16.65;41.16;101168.03;4960826;29;1265;-51
2023/02/03 10:51:00;;;;;;;;;;;;;;;15.94;42.67;101158.97;4960614;29;1241;-53
2023/02/03 10:53:31;;;;;;;;;;;;;;;15.64;43.52;101157.56;4945148;29;1233;-56
2023/02/03 10:56:01;;;;;;;;;;;;;;;15.60;43.93;101161.06;4958688;29;1265;-54
2023/02/03 10:58:27;;;;;;;;;;;;;;;17.20;40.13;101163.16;4960141;28;1202;-54
2023/02/03 11:00:56;;;;;;;;;;;;;;;16.75;40.93;101168.94;4943201;29;1906;-55
2023/02/03 11:03:25;;;;;;;;;;;;;;;16.05;42.64;101168.94;4961889;28;1002;-50
2023/02/03 11:06:09;;;;;;;;;;;;;;;15.74;43.30;101165.06;4943458;29;1225;-55
2023/02/03 11:08:35;;;;;;;;;;;;;;;15.52;44.09;101165.09;4960244;29;1151;-54
2023/02/03 11:11:01;;;;;;;;;;;;;;;17.04;40.79;101160.34;4958033;28;1202;-56
2023/02/03 11:13:27;;;;;;;;;;;;;;;16.72;41.08;101158.47;4943086;29;1114;-57
2023/02/03 11:15:53;;;;;;;;;;;;;;;16.05;42.87;101157.97;4943296;29;1448;-54
2023/02/03 11:18:37;;;;;;;;;;;;;;;15.67;43.42;101164.41;4957884;29;1191;-51
2023/02/03 11:21:22;;;;;;;;;;;;;;;16.41;42.00;101151.94;4956295;29;1907;-54
2023/02/03 11:23:52;;;;;;;;;;;;;;;17.44;39.62;101153.34;4958872;29;1190;-56
2023/02/03 11:26:18;;;;;;;;;;;;;;;16.28;42.32;101147.72;4941781;29;1273;-53
2023/02/03 11:28:44;;;;;;;;;;;;;;;15.87;43.35;101159.19;4973138;28;1025;-52
2023/02/03 11:31:17;;;;;;;;;;;;;;;15.57;43.66;101149.53;4941944;29;987;-56
2023/02/03 11:33:45;;;;;;;;;;;;;;;15.44;44.30;101154.59;4956901;28;991;-55
2023/02/03 11:36:11;;;;;;;;;;;;;;;16.98;41.02;101144.91;4958441;28;1079;-53
2023/02/03 11:38:37;;;;;;;;;;;;;;;16.82;41.17;101145.91;4958588;28;966;-54
2023/02/03 11:41:02;;;;;;;;;;;;;;;15.98;42.84;101145.59;4955609;28;1903;-56
2023/02/03 11:43:28;;;;;;;;;;;;;;;15.70;43.57;101156.50;4958327;29;977;-56
2023/02/03 11:45:54;;;;;;;;;;;;;;;15.44;44.14;101143.63;4940020;29;1066;-53
2023/02/03 11:48:25;;;;;;;;;;;;;;;16.36;42.35;101152.75;4972258;28;1451;-48
2023/02/03 11:51:03;;;;;;;;;;;;;;;17.51;39.88;101149.53;4959179;28;1312;-51
2023/02/03 11:53:28;;;;;;;;;;;;;;;16.36;42.17;101146.44;4957645;29;1300;-55
2023/02/03 11:56:06;;;;;;;;;;;;;;;15.88;43.28;101143.56;4958574;29;1249;-54
2023/02/03 11:58:34;;;;;;;;;;;;;;;15.59;43.86;101152.00;4958375;28;1217;-58
2023/02/03 12:01:02;;;;;;;;;;;;;;;16.22;42.79;101143.31;4958395;29;1989;-52
2023/02/03 12:03:31;;;;;;;;;;;;;;;17.51;39.65;101152.28;4958570;29;1290;-55
2023/02/03 12:05:58;;;;;;;;;;;;;;;16.47;42.03;101144.59;4957914;29;1301;-52
2023/02/03 12:08:38;;;;;;;;;;;;;;;15.98;43.02;101148.31;4958066;29;1209;-57
2023/02/03 12:11:03;;;;;;;;;;;;;;;15.67;43.59;101143.34;4949519;28;1850;-57
2023/02/03 12:13:47;;;;;;;;;;;;;;;15.58;43.86;101144.88;4952114;29;1165;-54
2023/02/03 12:16:13;;;;;;;;;;;;;;;17.23;40.57;101140.63;4958557;29;1050;-54
2023/02/03 12:18:57;;;;;;;;;;;;;;;16.74;41.25;101142.56;4916919;29;1206361;-51
2023/02/03 12:21:25;;;;;;;;;;;;;;;16.01;43.18;101147.78;4970591;28;1034;-49
2023/02/03 12:23:57;;;;;;;;;;;;;;;15.67;43.68;101143.34;4978167;28;1054;-53
2023/02/03 12:26:29;;;;;;;;;;;;;;;15.48;44.16;101150.25;4965467;28;1066;-55
2023/02/03 12:28:54;;;;;;;;;;;;;;;16.65;41.77;101144.16;4968669;28;1099;-56
2023/02/03 12:31:28;;;;;;;;;;;;;;;17.52;39.58;101151.19;4958308;28;1209;-54
2023/02/03 12:33:59;;;;;;;;;;;;;;;16.30;42.48;101150.22;4956307;29;1175;-52
2023/02/03 12:36:36;;;;;;;;;;;;;;;15.83;43.25;101149.00;4960515;28;1043;-47
2023/02/03 12:39:03;;;;;;;;;;;;;;;15.58;44.20;101147.59;4984146;28;1970;-54
2023/02/03 12:41:29;;;;;;;;;;;;;;;15.40;44.45;101152.38;4966023;28;1050;-55
2023/02/03 12:44:04;;;;;;;;;;;;;;;16.88;41.10;101155.81;4983057;28;1196;-56
2023/02/03 12:46:31;;;;;;;;;;;;;;;17.37;40.09;101158.25;4983465;28;1043;-54
2023/02/03 12:49:04;;;;;;;;;;;;;;;16.28;42.56;101164.19;4941102;29;1297;-51
2023/02/03 12:51:41;;;;;;;;;;;;;;;15.84;43.31;101159.69;4939820;29;1203;-55
2023/02/03 12:54:10;;;;;;;;;;;;;;;15.61;44.04;101162.72;4938947;29;1414;-55